sensor_id;sensor_type;location;lat;lon;timestamp;temperature;humidity
66586;SHT30;53444;45.822;16.092;2022-12-07T00:01:05;3.73;95.22
66586;SHT30;53444;45.822;16.092;2022-12-07T00:03:31;3.67;95.27
66586;SHT30;53444;45.822;16.092;2022-12-07T00:05:58;3.67;95.38
66586;SHT30;53444;45.822;16.092;2022-12-07T00:08:27;3.70;95.28
66586;SHT30;53444;45.822;16.092;2022-12-07T00:10:53;3.64;95.36
66586;SHT30;53444;45.822;16.092;2022-12-07T00:13:20;3.55;95.58
66586;SHT30;53444;45.822;16.092;2022-12-07T00:15:46;3.32;96.11
66586;SHT30;53444;45.822;16.092;2022-12-07T00:18:13;3.42;96.09
66586;SHT30;53444;45.822;16.092;2022-12-07T00:20:40;3.46;95.97
66586;SHT30;53444;45.822;16.092;2022-12-07T00:23:06;3.47;95.81
66586;SHT30;53444;45.822;16.092;2022-12-07T00:25:34;3.52;95.77
66586;SHT30;53444;45.822;16.092;2022-12-07T00:28:01;3.43;95.85
66586;SHT30;53444;45.822;16.092;2022-12-07T00:30:27;3.28;96.26
66586;SHT30;53444;45.822;16.092;2022-12-07T00:32:54;3.35;96.23
66586;SHT30;53444;45.822;16.092;2022-12-07T00:35:20;3.33;96.23
66586;SHT30;53444;45.822;16.092;2022-12-07T00:37:47;3.35;96.41
66586;SHT30;53444;45.822;16.092;2022-12-07T00:40:14;3.33;96.08
66586;SHT30;53444;45.822;16.092;2022-12-07T00:42:42;3.33;96.18
66586;SHT30;53444;45.822;16.092;2022-12-07T00:45:09;3.30;96.45
66586;SHT30;53444;45.822;16.092;2022-12-07T00:50:22;3.47;96.37
66586;SHT30;53444;45.822;16.092;2022-12-07T00:52:49;3.44;96.44
66586;SHT30;53444;45.822;16.092;2022-12-07T00:55:15;3.62;96.33
66586;SHT30;53444;45.822;16.092;2022-12-07T00:57:43;3.71;96.09
66586;SHT30;53444;45.822;16.092;2022-12-07T01:00:10;3.74;96.17
66586;SHT30;53444;45.822;16.092;2022-12-07T01:02:37;3.81;96.24
66586;SHT30;53444;45.822;16.092;2022-12-07T01:05:05;3.83;96.02
66586;SHT30;53444;45.822;16.092;2022-12-07T01:07:31;3.88;95.93
66586;SHT30;53444;45.822;16.092;2022-12-07T01:09:58;3.93;95.75
66586;SHT30;53444;45.822;16.092;2022-12-07T01:12:24;3.94;95.73
66586;SHT30;53444;45.822;16.092;2022-12-07T01:14:52;3.81;96.20
66586;SHT30;53444;45.822;16.092;2022-12-07T01:17:19;3.84;96.16
66586;SHT30;53444;45.822;16.092;2022-12-07T01:19:45;3.90;95.92
66586;SHT30;53444;45.822;16.092;2022-12-07T01:22:12;3.97;95.53
66586;SHT30;53444;45.822;16.092;2022-12-07T01:24:39;3.91;95.57
66586;SHT30;53444;45.822;16.092;2022-12-07T01:27:05;3.93;95.38
66586;SHT30;53444;45.822;16.092;2022-12-07T01:29:32;3.95;95.38
66586;SHT30;53444;45.822;16.092;2022-12-07T01:32:00;4.02;95.22
66586;SHT30;53444;45.822;16.092;2022-12-07T01:34:26;3.98;95.40
66586;SHT30;53444;45.822;16.092;2022-12-07T01:36:53;4.04;95.38
66586;SHT30;53444;45.822;16.092;2022-12-07T01:39:20;4.04;95.12
66586;SHT30;53444;45.822;16.092;2022-12-07T01:41:46;4.05;95.22
66586;SHT30;53444;45.822;16.092;2022-12-07T01:44:17;4.11;95.09
66586;SHT30;53444;45.822;16.092;2022-12-07T01:46:45;4.15;94.91
66586;SHT30;53444;45.822;16.092;2022-12-07T01:49:17;4.05;95.14
66586;SHT30;53444;45.822;16.092;2022-12-07T01:51:46;3.93;95.86
66586;SHT30;53444;45.822;16.092;2022-12-07T01:54:14;3.98;95.96
66586;SHT30;53444;45.822;16.092;2022-12-07T01:56:46;3.95;96.10
66586;SHT30;53444;45.822;16.092;2022-12-07T01:59:16;3.97;96.36
66586;SHT30;53444;45.822;16.092;2022-12-07T02:01:44;4.08;96.24
66586;SHT30;53444;45.822;16.092;2022-12-07T02:04:11;4.19;95.71
66586;SHT30;53444;45.822;16.092;2022-12-07T02:06:41;4.19;95.54
66586;SHT30;53444;45.822;16.092;2022-12-07T02:09:08;4.21;95.60
66586;SHT30;53444;45.822;16.092;2022-12-07T02:11:35;4.31;95.33
66586;SHT30;53444;45.822;16.092;2022-12-07T02:14:02;4.34;95.14
66586;SHT30;53444;45.822;16.092;2022-12-07T02:16:34;4.35;95.15
66586;SHT30;53444;45.822;16.092;2022-12-07T02:19:22;4.37;95.42
66586;SHT30;53444;45.822;16.092;2022-12-07T02:21:58;4.41;95.26
66586;SHT30;53444;45.822;16.092;2022-12-07T02:24:40;4.42;95.15
66586;SHT30;53444;45.822;16.092;2022-12-07T02:27:25;4.44;95.16
66586;SHT30;53444;45.822;16.092;2022-12-07T02:29:58;4.39;95.03
66586;SHT30;53444;45.822;16.092;2022-12-07T02:32:30;4.38;95.21
66586;SHT30;53444;45.822;16.092;2022-12-07T02:35:05;4.51;94.98
66586;SHT30;53444;45.822;16.092;2022-12-07T02:37:36;4.53;94.74
66586;SHT30;53444;45.822;16.092;2022-12-07T02:40:09;4.48;95.13
66586;SHT30;53444;45.822;16.092;2022-12-07T02:42:41;4.35;95.50
66586;SHT30;53444;45.822;16.092;2022-12-07T02:45:15;4.32;95.60
66586;SHT30;53444;45.822;16.092;2022-12-07T02:47:44;4.32;95.60
66586;SHT30;53444;45.822;16.092;2022-12-07T02:50:12;4.41;95.55
66586;SHT30;53444;45.822;16.092;2022-12-07T02:52:38;4.44;95.56
66586;SHT30;53444;45.822;16.092;2022-12-07T02:55:06;4.44;95.38
66586;SHT30;53444;45.822;16.092;2022-12-07T02:57:44;4.45;95.33
66586;SHT30;53444;45.822;16.092;2022-12-07T03:00:18;4.41;95.28
66586;SHT30;53444;45.822;16.092;2022-12-07T03:02:51;4.35;95.28
66586;SHT30;53444;45.822;16.092;2022-12-07T03:05:28;4.25;95.42
66586;SHT30;53444;45.822;16.092;2022-12-07T03:08:01;4.27;95.58
66586;SHT30;53444;45.822;16.092;2022-12-07T03:10:35;4.11;95.68
66586;SHT30;53444;45.822;16.092;2022-12-07T03:13:07;4.05;96.28
66586;SHT30;53444;45.822;16.092;2022-12-07T03:15:41;4.01;96.40
66586;SHT30;53444;45.822;16.092;2022-12-07T03:18:10;4.12;96.29
66586;SHT30;53444;45.822;16.092;2022-12-07T03:20:40;4.12;96.13
66586;SHT30;53444;45.822;16.092;2022-12-07T03:23:10;4.05;96.41
66586;SHT30;53444;45.822;16.092;2022-12-07T03:25:39;4.00;96.62
66586;SHT30;53444;45.822;16.092;2022-12-07T03:28:08;3.94;96.88
66586;SHT30;53444;45.822;16.092;2022-12-07T03:30:40;3.93;97.13
66586;SHT30;53444;45.822;16.092;2022-12-07T03:33:12;3.94;97.13
66586;SHT30;53444;45.822;16.092;2022-12-07T03:35:41;3.88;97.20
66586;SHT30;53444;45.822;16.092;2022-12-07T03:38:14;3.97;97.05
66586;SHT30;53444;45.822;16.092;2022-12-07T03:40:46;4.04;96.91
66586;SHT30;53444;45.822;16.092;2022-12-07T03:43:15;4.12;96.77
66586;SHT30;53444;45.822;16.092;2022-12-07T03:45:50;4.14;96.62
66586;SHT30;53444;45.822;16.092;2022-12-07T03:48:24;4.18;96.54
66586;SHT30;53444;45.822;16.092;2022-12-07T03:51:01;4.24;96.39
66586;SHT30;53444;45.822;16.092;2022-12-07T03:53:34;4.21;96.53
66586;SHT30;53444;45.822;16.092;2022-12-07T03:56:03;4.25;96.33
66586;SHT30;53444;45.822;16.092;2022-12-07T03:58:30;4.31;96.23
66586;SHT30;53444;45.822;16.092;2022-12-07T04:00:58;4.32;96.21
66586;SHT30;53444;45.822;16.092;2022-12-07T04:03:25;4.28;96.29
66586;SHT30;53444;45.822;16.092;2022-12-07T04:05:52;4.27;96.29
66586;SHT30;53444;45.822;16.092;2022-12-07T04:08:19;4.31;96.31
66586;SHT30;53444;45.822;16.092;2022-12-07T04:10:46;4.17;96.85
66586;SHT30;53444;45.822;16.092;2022-12-07T04:13:12;4.18;96.69
66586;SHT30;53444;45.822;16.092;2022-12-07T04:15:39;4.24;96.71
66586;SHT30;53444;45.822;16.092;2022-12-07T04:18:07;4.22;96.50
66586;SHT30;53444;45.822;16.092;2022-12-07T04:20:34;4.24;96.43
66586;SHT30;53444;45.822;16.092;2022-12-07T04:23:00;4.19;96.46
66586;SHT30;53444;45.822;16.092;2022-12-07T04:25:27;4.17;96.54
66586;SHT30;53444;45.822;16.092;2022-12-07T04:27:53;4.18;96.75
66586;SHT30;53444;45.822;16.092;2022-12-07T04:30:20;4.17;96.71
66586;SHT30;53444;45.822;16.092;2022-12-07T04:32:46;4.21;96.77
66586;SHT30;53444;45.822;16.092;2022-12-07T04:35:15;4.22;96.44
66586;SHT30;53444;45.822;16.092;2022-12-07T04:37:41;4.31;96.37
66586;SHT30;53444;45.822;16.092;2022-12-07T04:40:09;4.31;96.30
66586;SHT30;53444;45.822;16.092;2022-12-07T04:42:36;4.35;96.25
66586;SHT30;53444;45.822;16.092;2022-12-07T04:45:03;4.39;96.21
66586;SHT30;53444;45.822;16.092;2022-12-07T04:47:30;4.45;96.13
66586;SHT30;53444;45.822;16.092;2022-12-07T04:49:57;4.45;96.02
66586;SHT30;53444;45.822;16.092;2022-12-07T04:52:25;4.45;96.17
66586;SHT30;53444;45.822;16.092;2022-12-07T04:54:51;4.48;95.91
66586;SHT30;53444;45.822;16.092;2022-12-07T04:57:18;4.48;95.75
66586;SHT30;53444;45.822;16.092;2022-12-07T04:59:45;4.48;95.88
66586;SHT30;53444;45.822;16.092;2022-12-07T05:02:11;4.46;96.02
66586;SHT30;53444;45.822;16.092;2022-12-07T05:04:40;4.48;96.01
66586;SHT30;53444;45.822;16.092;2022-12-07T05:07:06;4.52;95.82
66586;SHT30;53444;45.822;16.092;2022-12-07T05:09:34;4.52;95.76
66586;SHT30;53444;45.822;16.092;2022-12-07T05:12:04;4.51;95.98
66586;SHT30;53444;45.822;16.092;2022-12-07T05:14:31;4.56;96.14
66586;SHT30;53444;45.822;16.092;2022-12-07T05:16:57;4.60;95.91
66586;SHT30;53444;45.822;16.092;2022-12-07T05:19:24;4.66;95.74
66586;SHT30;53444;45.822;16.092;2022-12-07T05:21:51;4.56;95.80
66586;SHT30;53444;45.822;16.092;2022-12-07T05:24:18;4.55;95.91
66586;SHT30;53444;45.822;16.092;2022-12-07T05:26:46;4.53;95.80
66586;SHT30;53444;45.822;16.092;2022-12-07T05:29:13;4.60;95.75
66586;SHT30;53444;45.822;16.092;2022-12-07T05:31:40;4.69;95.90
66586;SHT30;53444;45.822;16.092;2022-12-07T05:34:07;4.73;95.64
66586;SHT30;53444;45.822;16.092;2022-12-07T05:36:34;4.75;95.50
66586;SHT30;53444;45.822;16.092;2022-12-07T05:39:00;4.73;95.42
66586;SHT30;53444;45.822;16.092;2022-12-07T05:41:27;4.76;95.43
66586;SHT30;53444;45.822;16.092;2022-12-07T05:44:13;4.70;95.32
66586;SHT30;53444;45.822;16.092;2022-12-07T05:46:40;4.68;95.46
66586;SHT30;53444;45.822;16.092;2022-12-07T05:49:06;4.63;95.85
66586;SHT30;53444;45.822;16.092;2022-12-07T05:51:33;4.70;95.88
66586;SHT30;53444;45.822;16.092;2022-12-07T05:54:00;4.76;95.74
66586;SHT30;53444;45.822;16.092;2022-12-07T05:56:26;4.76;95.49
66586;SHT30;53444;45.822;16.092;2022-12-07T05:58:53;4.77;95.33
66586;SHT30;53444;45.822;16.092;2022-12-07T06:01:38;4.75;95.30
66586;SHT30;53444;45.822;16.092;2022-12-07T06:04:05;4.83;95.45
66586;SHT30;53444;45.822;16.092;2022-12-07T06:06:32;4.96;94.92
66586;SHT30;53444;45.822;16.092;2022-12-07T06:08:58;5.09;94.25
66586;SHT30;53444;45.822;16.092;2022-12-07T06:11:25;5.17;93.72
66586;SHT30;53444;45.822;16.092;2022-12-07T06:14:09;5.10;93.68
66586;SHT30;53444;45.822;16.092;2022-12-07T06:16:35;4.96;94.40
66586;SHT30;53444;45.822;16.092;2022-12-07T06:19:03;4.89;94.52
66586;SHT30;53444;45.822;16.092;2022-12-07T06:21:30;4.87;94.60
66586;SHT30;53444;45.822;16.092;2022-12-07T06:23:56;4.86;94.68
66586;SHT30;53444;45.822;16.092;2022-12-07T06:26:23;4.83;94.76
66586;SHT30;53444;45.822;16.092;2022-12-07T06:28:50;4.80;95.08
66586;SHT30;53444;45.822;16.092;2022-12-07T06:31:16;4.79;95.35
66586;SHT30;53444;45.822;16.092;2022-12-07T06:33:43;4.83;95.31
66586;SHT30;53444;45.822;16.092;2022-12-07T06:36:11;4.84;95.18
66586;SHT30;53444;45.822;16.092;2022-12-07T06:38:38;4.87;95.11
66586;SHT30;53444;45.822;16.092;2022-12-07T06:41:05;4.87;94.88
66586;SHT30;53444;45.822;16.092;2022-12-07T06:43:31;4.92;94.83
66586;SHT30;53444;45.822;16.092;2022-12-07T06:45:58;4.92;94.92
66586;SHT30;53444;45.822;16.092;2022-12-07T06:48:25;4.93;94.82
66586;SHT30;53444;45.822;16.092;2022-12-07T06:50:51;4.90;95.00
66586;SHT30;53444;45.822;16.092;2022-12-07T06:53:21;4.93;94.95
66586;SHT30;53444;45.822;16.092;2022-12-07T06:55:57;4.96;95.26
66586;SHT30;53444;45.822;16.092;2022-12-07T06:58:25;4.92;95.41
66586;SHT30;53444;45.822;16.092;2022-12-07T07:00:53;4.86;95.52
66586;SHT30;53444;45.822;16.092;2022-12-07T07:03:19;4.92;95.59
66586;SHT30;53444;45.822;16.092;2022-12-07T07:05:46;4.93;95.71
66586;SHT30;53444;45.822;16.092;2022-12-07T07:08:13;4.93;95.99
66586;SHT30;53444;45.822;16.092;2022-12-07T07:10:41;4.92;95.99
66586;SHT30;53444;45.822;16.092;2022-12-07T07:13:08;4.96;96.02
66586;SHT30;53444;45.822;16.092;2022-12-07T07:15:35;5.00;95.91
66586;SHT30;53444;45.822;16.092;2022-12-07T07:18:03;5.03;95.63
66586;SHT30;53444;45.822;16.092;2022-12-07T07:20:30;5.03;95.86
66586;SHT30;53444;45.822;16.092;2022-12-07T07:22:57;5.07;95.80
66586;SHT30;53444;45.822;16.092;2022-12-07T07:25:23;5.07;95.73
66586;SHT30;53444;45.822;16.092;2022-12-07T07:27:51;5.14;95.60
66586;SHT30;53444;45.822;16.092;2022-12-07T07:30:20;5.04;95.71
66586;SHT30;53444;45.822;16.092;2022-12-07T07:32:46;4.89;96.43
66586;SHT30;53444;45.822;16.092;2022-12-07T07:35:13;4.93;96.31
66586;SHT30;53444;45.822;16.092;2022-12-07T07:37:40;4.99;96.26
66586;SHT30;53444;45.822;16.092;2022-12-07T07:40:08;4.99;96.39
66586;SHT30;53444;45.822;16.092;2022-12-07T07:42:35;5.04;96.16
66586;SHT30;53444;45.822;16.092;2022-12-07T07:45:04;5.07;96.03
66586;SHT30;53444;45.822;16.092;2022-12-07T07:47:30;5.14;95.84
66586;SHT30;53444;45.822;16.092;2022-12-07T07:49:58;5.17;95.71
66586;SHT30;53444;45.822;16.092;2022-12-07T07:52:29;5.20;95.67
66586;SHT30;53444;45.822;16.092;2022-12-07T07:54:56;5.21;95.93
66586;SHT30;53444;45.822;16.092;2022-12-07T07:57:22;5.27;96.12
66586;SHT30;53444;45.822;16.092;2022-12-07T07:59:49;5.34;96.24
66586;SHT30;53444;45.822;16.092;2022-12-07T08:02:19;5.35;96.25
66586;SHT30;53444;45.822;16.092;2022-12-07T08:04:46;5.38;96.40
66586;SHT30;53444;45.822;16.092;2022-12-07T08:07:13;5.34;96.11
66586;SHT30;53444;45.822;16.092;2022-12-07T08:09:40;5.31;96.00
66586;SHT30;53444;45.822;16.092;2022-12-07T08:12:08;5.28;95.82
66586;SHT30;53444;45.822;16.092;2022-12-07T08:14:34;5.27;95.94
66586;SHT30;53444;45.822;16.092;2022-12-07T08:17:01;5.26;95.91
66586;SHT30;53444;45.822;16.092;2022-12-07T08:19:31;5.30;95.94
66586;SHT30;53444;45.822;16.092;2022-12-07T08:21:58;5.27;96.08
66586;SHT30;53444;45.822;16.092;2022-12-07T08:24:25;5.24;95.92
66586;SHT30;53444;45.822;16.092;2022-12-07T08:26:52;5.24;95.91
66586;SHT30;53444;45.822;16.092;2022-12-07T08:29:21;5.24;95.91
66586;SHT30;53444;45.822;16.092;2022-12-07T08:31:48;5.24;96.02
66586;SHT30;53444;45.822;16.092;2022-12-07T08:34:18;5.23;95.87
66586;SHT30;53444;45.822;16.092;2022-12-07T08:36:46;5.24;95.57
66586;SHT30;53444;45.822;16.092;2022-12-07T08:39:12;5.23;95.57
66586;SHT30;53444;45.822;16.092;2022-12-07T08:41:39;5.17;95.53
66586;SHT30;53444;45.822;16.092;2022-12-07T08:44:06;5.14;94.95
66586;SHT30;53444;45.822;16.092;2022-12-07T08:46:35;5.14;94.73
66586;SHT30;53444;45.822;16.092;2022-12-07T08:49:13;5.10;94.22
66586;SHT30;53444;45.822;16.092;2022-12-07T08:51:41;5.03;94.00
66586;SHT30;53444;45.822;16.092;2022-12-07T08:54:12;4.96;93.88
66586;SHT30;53444;45.822;16.092;2022-12-07T08:56:40;4.99;93.86
66586;SHT30;53444;45.822;16.092;2022-12-07T08:59:08;4.92;93.78
66586;SHT30;53444;45.822;16.092;2022-12-07T09:01:35;4.99;93.53
66586;SHT30;53444;45.822;16.092;2022-12-07T09:04:02;4.97;93.31
66586;SHT30;53444;45.822;16.092;2022-12-07T09:06:28;5.04;93.39
66586;SHT30;53444;45.822;16.092;2022-12-07T09:08:58;5.07;93.20
66586;SHT30;53444;45.822;16.092;2022-12-07T09:11:26;5.01;93.19
66586;SHT30;53444;45.822;16.092;2022-12-07T09:13:54;5.01;92.99
66586;SHT30;53444;45.822;16.092;2022-12-07T09:16:21;4.96;93.08
66586;SHT30;53444;45.822;16.092;2022-12-07T09:18:47;5.01;93.06
66586;SHT30;53444;45.822;16.092;2022-12-07T09:21:14;5.04;93.08
66586;SHT30;53444;45.822;16.092;2022-12-07T09:23:41;5.06;93.18
66586;SHT30;53444;45.822;16.092;2022-12-07T09:26:08;5.10;93.09
66586;SHT30;53444;45.822;16.092;2022-12-07T09:28:36;5.10;92.88
66586;SHT30;53444;45.822;16.092;2022-12-07T09:31:03;5.13;92.77
66586;SHT30;53444;45.822;16.092;2022-12-07T09:33:30;5.16;92.77
66586;SHT30;53444;45.822;16.092;2022-12-07T09:35:57;5.16;92.90
66586;SHT30;53444;45.822;16.092;2022-12-07T09:38:24;5.11;92.65
66586;SHT30;53444;45.822;16.092;2022-12-07T09:40:52;5.19;92.72
66586;SHT30;53444;45.822;16.092;2022-12-07T09:43:22;5.21;92.64
66586;SHT30;53444;45.822;16.092;2022-12-07T09:45:51;5.23;92.52
66586;SHT30;53444;45.822;16.092;2022-12-07T09:48:21;5.31;92.60
66586;SHT30;53444;45.822;16.092;2022-12-07T09:50:49;5.38;92.25
66586;SHT30;53444;45.822;16.092;2022-12-07T09:53:20;5.35;92.02
66586;SHT30;53444;45.822;16.092;2022-12-07T09:55:48;5.38;91.51
66586;SHT30;53444;45.822;16.092;2022-12-07T09:58:20;5.35;91.85
66586;SHT30;53444;45.822;16.092;2022-12-07T10:00:47;5.45;91.97
66586;SHT30;53444;45.822;16.092;2022-12-07T10:03:16;5.48;91.63
66586;SHT30;53444;45.822;16.092;2022-12-07T10:05:46;5.59;91.05
66586;SHT30;53444;45.822;16.092;2022-12-07T10:08:15;5.59;91.23
66586;SHT30;53444;45.822;16.092;2022-12-07T10:10:43;5.65;90.91
66586;SHT30;53444;45.822;16.092;2022-12-07T10:13:12;5.66;90.76
66586;SHT30;53444;45.822;16.092;2022-12-07T10:15:48;5.59;90.38
66586;SHT30;53444;45.822;16.092;2022-12-07T10:18:30;5.61;90.50
66586;SHT30;53444;45.822;16.092;2022-12-07T10:21:02;5.66;90.39
66586;SHT30;53444;45.822;16.092;2022-12-07T10:23:28;5.71;90.25
66586;SHT30;53444;45.822;16.092;2022-12-07T10:25:55;5.74;90.09
66586;SHT30;53444;45.822;16.092;2022-12-07T10:28:22;5.75;89.89
66586;SHT30;53444;45.822;16.092;2022-12-07T10:30:52;5.81;89.72
66586;SHT30;53444;45.822;16.092;2022-12-07T10:33:35;5.81;88.84
66586;SHT30;53444;45.822;16.092;2022-12-07T10:36:16;5.85;89.35
66586;SHT30;53444;45.822;16.092;2022-12-07T10:38:46;5.76;89.52
66586;SHT30;53444;45.822;16.092;2022-12-07T10:41:13;5.64;90.13
66586;SHT30;53444;45.822;16.092;2022-12-07T10:43:47;5.76;90.50
66586;SHT30;53444;45.822;16.092;2022-12-07T10:49:36;5.99;89.54
66586;SHT30;53444;45.822;16.092;2022-12-07T10:52:13;6.06;89.25
66586;SHT30;53444;45.822;16.092;2022-12-07T10:54:48;5.72;89.83
66586;SHT30;53444;45.822;16.092;2022-12-07T10:57:32;5.65;90.52
66586;SHT30;53444;45.822;16.092;2022-12-07T11:00:09;5.74;90.68
66586;SHT30;53444;45.822;16.092;2022-12-07T11:02:58;5.72;90.81
66586;SHT30;53444;45.822;16.092;2022-12-07T11:05:34;5.72;90.65
66586;SHT30;53444;45.822;16.092;2022-12-07T11:08:13;5.66;90.85
66586;SHT30;53444;45.822;16.092;2022-12-07T11:10:45;5.69;91.46
66586;SHT30;53444;45.822;16.092;2022-12-07T11:13:26;5.69;91.25
66586;SHT30;53444;45.822;16.092;2022-12-07T11:16:22;5.75;90.69
66586;SHT30;53444;45.822;16.092;2022-12-07T11:19:10;5.91;90.75
66586;SHT30;53444;45.822;16.092;2022-12-07T11:21:45;6.02;90.45
66586;SHT30;53444;45.822;16.092;2022-12-07T11:24:16;6.09;90.50
66586;SHT30;53444;45.822;16.092;2022-12-07T11:27:07;6.16;90.22
66586;SHT30;53444;45.822;16.092;2022-12-07T11:29:51;6.20;89.68
66586;SHT30;53444;45.822;16.092;2022-12-07T11:32:29;6.16;90.12
66586;SHT30;53444;45.822;16.092;2022-12-07T11:35:05;6.16;89.76
66586;SHT30;53444;45.822;16.092;2022-12-07T11:37:37;6.22;89.69
66586;SHT30;53444;45.822;16.092;2022-12-07T11:40:15;6.19;88.80
66586;SHT30;53444;45.822;16.092;2022-12-07T11:42:46;6.20;89.20
66586;SHT30;53444;45.822;16.092;2022-12-07T11:45:20;6.34;90.32
66586;SHT30;53444;45.822;16.092;2022-12-07T11:47:53;6.41;89.19
66586;SHT30;53444;45.822;16.092;2022-12-07T11:50:30;6.51;88.83
66586;SHT30;53444;45.822;16.092;2022-12-07T11:53:02;6.57;88.75
66586;SHT30;53444;45.822;16.092;2022-12-07T11:55:39;6.54;88.36
66586;SHT30;53444;45.822;16.092;2022-12-07T11:58:17;6.41;88.35
66586;SHT30;53444;45.822;16.092;2022-12-07T12:00:46;6.51;88.45
66586;SHT30;53444;45.822;16.092;2022-12-07T12:03:18;6.56;88.26
66586;SHT30;53444;45.822;16.092;2022-12-07T12:05:46;6.51;87.29
66586;SHT30;53444;45.822;16.092;2022-12-07T12:08:20;6.53;87.92
66586;SHT30;53444;45.822;16.092;2022-12-07T12:10:55;6.51;88.06
66586;SHT30;53444;45.822;16.092;2022-12-07T12:13:48;6.58;87.42
66586;SHT30;53444;45.822;16.092;2022-12-07T12:16:32;6.51;87.82
66586;SHT30;53444;45.822;16.092;2022-12-07T12:19:16;6.60;88.36
66586;SHT30;53444;45.822;16.092;2022-12-07T12:21:46;6.63;88.22
66586;SHT30;53444;45.822;16.092;2022-12-07T12:24:18;6.67;88.18
66586;SHT30;53444;45.822;16.092;2022-12-07T12:26:50;6.63;86.43
66586;SHT30;53444;45.822;16.092;2022-12-07T12:29:22;6.63;85.18
66586;SHT30;53444;45.822;16.092;2022-12-07T12:32:05;6.60;85.03
66586;SHT30;53444;45.822;16.092;2022-12-07T12:34:39;6.61;84.58
66586;SHT30;53444;45.822;16.092;2022-12-07T12:37:43;6.66;84.37
66586;SHT30;53444;45.822;16.092;2022-12-07T12:40:42;6.67;84.00
66586;SHT30;53444;45.822;16.092;2022-12-07T12:43:42;6.66;84.26
66586;SHT30;53444;45.822;16.092;2022-12-07T12:46:48;6.66;83.81
66586;SHT30;53444;45.822;16.092;2022-12-07T12:49:34;6.73;84.22
66586;SHT30;53444;45.822;16.092;2022-12-07T12:55:15;6.74;84.08
66586;SHT30;53444;45.822;16.092;2022-12-07T12:57:48;6.70;83.75
66586;SHT30;53444;45.822;16.092;2022-12-07T13:00:34;6.68;83.96
66586;SHT30;53444;45.822;16.092;2022-12-07T13:03:01;6.70;84.35
66586;SHT30;53444;45.822;16.092;2022-12-07T13:05:29;6.74;84.19
66586;SHT30;53444;45.822;16.092;2022-12-07T13:07:58;6.70;83.35
66586;SHT30;53444;45.822;16.092;2022-12-07T13:10:43;6.74;82.98
66586;SHT30;53444;45.822;16.092;2022-12-07T13:13:32;6.71;81.79
66586;SHT30;53444;45.822;16.092;2022-12-07T13:16:37;6.73;82.10
66586;SHT30;53444;45.822;16.092;2022-12-07T13:28:15;6.91;81.94
66586;SHT30;53444;45.822;16.092;2022-12-07T13:30:59;6.94;81.55
66586;SHT30;53444;45.822;16.092;2022-12-07T13:33:28;6.85;81.52
66586;SHT30;53444;45.822;16.092;2022-12-07T13:35:56;6.94;82.07
66586;SHT30;53444;45.822;16.092;2022-12-07T13:38:28;6.84;81.59
66586;SHT30;53444;45.822;16.092;2022-12-07T13:41:13;6.81;81.36
66586;SHT30;53444;45.822;16.092;2022-12-07T13:43:44;6.73;81.18
66586;SHT30;53444;45.822;16.092;2022-12-07T13:46:13;6.67;80.83
66586;SHT30;53444;45.822;16.092;2022-12-07T13:48:45;6.68;81.24
66586;SHT30;53444;45.822;16.092;2022-12-07T13:51:20;6.64;81.27
66586;SHT30;53444;45.822;16.092;2022-12-07T13:53:48;6.67;81.08
66586;SHT30;53444;45.822;16.092;2022-12-07T13:56:15;6.61;81.42
66586;SHT30;53444;45.822;16.092;2022-12-07T13:58:42;6.63;80.81
66586;SHT30;53444;45.822;16.092;2022-12-07T14:01:10;6.64;81.43
66586;SHT30;53444;45.822;16.092;2022-12-07T14:03:39;6.56;80.85
66586;SHT30;53444;45.822;16.092;2022-12-07T14:06:14;6.50;80.89
66586;SHT30;53444;45.822;16.092;2022-12-07T14:08:41;6.54;81.30
66586;SHT30;53444;45.822;16.092;2022-12-07T14:11:12;6.57;81.41
66586;SHT30;53444;45.822;16.092;2022-12-07T14:13:44;6.56;81.39
66586;SHT30;53444;45.822;16.092;2022-12-07T14:16:22;6.56;82.03
66586;SHT30;53444;45.822;16.092;2022-12-07T14:18:51;6.57;82.26
66586;SHT30;53444;45.822;16.092;2022-12-07T14:21:20;6.54;82.94
66586;SHT30;53444;45.822;16.092;2022-12-07T14:24:14;6.56;83.28
66586;SHT30;53444;45.822;16.092;2022-12-07T14:26:41;6.57;83.55
66586;SHT30;53444;45.822;16.092;2022-12-07T14:29:35;6.54;83.93
66586;SHT30;53444;45.822;16.092;2022-12-07T14:32:19;6.56;84.24
66586;SHT30;53444;45.822;16.092;2022-12-07T14:35:00;6.54;84.46
66586;SHT30;53444;45.822;16.092;2022-12-07T14:37:29;6.47;84.81
66586;SHT30;53444;45.822;16.092;2022-12-07T14:39:56;6.43;85.17
66586;SHT30;53444;45.822;16.092;2022-12-07T14:42:26;6.44;85.52
66586;SHT30;53444;45.822;16.092;2022-12-07T14:44:54;6.41;85.32
66586;SHT30;53444;45.822;16.092;2022-12-07T14:47:20;6.36;85.56
66586;SHT30;53444;45.822;16.092;2022-12-07T14:49:47;6.34;85.49
66586;SHT30;53444;45.822;16.092;2022-12-07T14:52:17;6.30;86.01
66586;SHT30;53444;45.822;16.092;2022-12-07T14:54:45;6.32;86.18
66586;SHT30;53444;45.822;16.092;2022-12-07T14:57:12;6.30;86.34
66586;SHT30;53444;45.822;16.092;2022-12-07T14:59:39;6.29;86.47
66586;SHT30;53444;45.822;16.092;2022-12-07T15:02:06;6.26;86.43
66586;SHT30;53444;45.822;16.092;2022-12-07T15:04:33;6.25;86.69
66586;SHT30;53444;45.822;16.092;2022-12-07T15:07:02;6.23;86.93
66586;SHT30;53444;45.822;16.092;2022-12-07T15:09:31;6.22;87.25
66586;SHT30;53444;45.822;16.092;2022-12-07T15:11:57;6.17;87.66
66586;SHT30;53444;45.822;16.092;2022-12-07T15:14:24;6.20;87.58
66586;SHT30;53444;45.822;16.092;2022-12-07T15:16:51;6.19;87.74
66586;SHT30;53444;45.822;16.092;2022-12-07T15:19:18;6.22;87.92
66586;SHT30;53444;45.822;16.092;2022-12-07T15:21:48;6.15;88.70
66586;SHT30;53444;45.822;16.092;2022-12-07T15:24:14;6.10;88.81
66586;SHT30;53444;45.822;16.092;2022-12-07T15:26:42;6.02;88.88
66586;SHT30;53444;45.822;16.092;2022-12-07T15:29:10;6.01;88.78
66586;SHT30;53444;45.822;16.092;2022-12-07T15:31:37;5.95;89.23
66586;SHT30;53444;45.822;16.092;2022-12-07T15:34:04;5.88;89.14
66586;SHT30;53444;45.822;16.092;2022-12-07T15:36:32;5.85;89.43
66586;SHT30;53444;45.822;16.092;2022-12-07T15:38:59;5.78;89.21
66586;SHT30;53444;45.822;16.092;2022-12-07T15:41:26;5.72;89.27
66586;SHT30;53444;45.822;16.092;2022-12-07T15:43:54;5.69;89.06
66586;SHT30;53444;45.822;16.092;2022-12-07T15:46:40;5.72;89.31
66586;SHT30;53444;45.822;16.092;2022-12-07T15:49:10;5.59;89.88
66586;SHT30;53444;45.822;16.092;2022-12-07T15:51:37;5.65;89.55
66586;SHT30;53444;45.822;16.092;2022-12-07T15:54:04;5.65;89.66
66586;SHT30;53444;45.822;16.092;2022-12-07T15:56:31;5.61;89.69
66586;SHT30;53444;45.822;16.092;2022-12-07T15:58:59;5.62;89.68
66586;SHT30;53444;45.822;16.092;2022-12-07T16:01:25;5.55;89.65
66586;SHT30;53444;45.822;16.092;2022-12-07T16:03:52;5.47;89.84
66586;SHT30;53444;45.822;16.092;2022-12-07T16:06:19;5.43;90.14
66586;SHT30;53444;45.822;16.092;2022-12-07T16:08:46;5.40;90.30